Time;durP1;ratioP1;P1;durP2;ratioP2;P2;SDS_P1;SDS_P2;PMS_P1;PMS_P2;Temp;Humidity;BMP_temperature;BMP_pressure;BME280_temperature;BME280_humidity;BME280_pressure;Samples;Min_cycle;Max_cycle;Signal;HPM_P1;HPM_P2
2022/05/22 00:01:41;;;;;;;7.57;6.40;;;12.00;99.90;;;;;;5069323;28;20495;-65
2022/05/22 00:04:09;;;;;;;8.17;6.70;;;12.10;99.90;;;;;;5069684;28;20965;-64
2022/05/22 00:06:35;;;;;;;8.63;7.50;;;12.00;99.90;;;;;;5069618;28;20451;-65
2022/05/22 00:09:03;;;;;;;8.57;6.10;;;11.90;99.90;;;;;;5069713;28;20840;-65
2022/05/22 00:11:31;;;;;;;7.37;6.57;;;11.80;99.90;;;;;;5069262;28;20593;-64
2022/05/22 00:13:58;;;;;;;7.43;6.40;;;11.60;99.90;;;;;;5069343;28;20538;-64
2022/05/22 00:16:41;;;;;;;9.37;6.83;;;11.60;99.90;;;;;;5069276;28;21066;-65
2022/05/22 00:19:11;;;;;;;8.50;7.17;;;11.70;99.90;;;;;;5069264;28;20469;-64
2022/05/22 00:21:38;;;;;;;9.43;8.07;;;11.70;99.90;;;;;;5069752;28;20538;-64
2022/05/22 00:24:07;;;;;;;6.97;6.30;;;11.60;99.90;;;;;;5069339;28;20447;-65
2022/05/22 00:26:35;;;;;;;7.17;6.53;;;11.40;99.90;;;;;;5069395;28;20458;-65
2022/05/22 00:29:02;;;;;;;14.73;7.10;;;11.30;99.90;;;;;;5070522;28;20467;-65
2022/05/22 00:31:29;;;;;;;8.13;7.43;;;11.40;99.90;;;;;;5065009;28;20459;-64
2022/05/22 00:33:56;;;;;;;7.87;6.90;;;11.40;99.90;;;;;;5071959;28;20453;-65
2022/05/22 00:36:23;;;;;;;7.77;6.40;;;11.30;99.90;;;;;;5072646;28;20450;-65
2022/05/22 00:38:49;;;;;;;8.80;6.90;;;11.30;99.90;;;;;;5070460;28;20478;-65
2022/05/22 00:41:17;;;;;;;8.23;7.13;;;11.40;99.90;;;;;;5072038;28;20564;-64
2022/05/22 00:43:47;;;;;;;9.47;6.87;;;11.40;99.90;;;;;;5072527;28;20477;-65
2022/05/22 00:46:16;;;;;;;7.73;6.53;;;11.40;99.90;;;;;;5072274;28;20823;-64
2022/05/22 00:48:48;;;;;;;8.93;7.00;;;11.30;99.90;;;;;;5072270;28;20466;-64
2022/05/22 00:51:19;;;;;;;8.53;7.63;;;11.30;99.90;;;;;;5072352;28;22059;-65
2022/05/22 00:53:52;;;;;;;7.43;6.53;;;11.20;99.90;;;;;;5067580;28;20455;-64
2022/05/22 00:56:24;;;;;;;7.80;7.00;;;11.20;99.90;;;;;;5072563;28;20858;-65
2022/05/22 00:58:56;;;;;;;7.20;6.50;;;11.20;99.90;;;;;;5072105;28;20506;-65
2022/05/22 01:01:23;;;;;;;7.73;6.70;;;11.10;99.90;;;;;;5071936;28;20486;-64
2022/05/22 01:03:50;;;;;;;8.23;7.20;;;11.00;99.90;;;;;;5072102;28;20961;-65
2022/05/22 01:06:24;;;;;;;8.70;7.07;;;11.00;99.90;;;;;;5072111;28;20477;-65
2022/05/22 01:08:51;;;;;;;11.20;7.43;;;11.00;99.90;;;;;;5072206;28;20524;-64
2022/05/22 01:11:22;;;;;;;6.87;6.17;;;11.00;99.90;;;;;;5072017;28;20451;-63
2022/05/22 01:13:53;;;;;;;8.40;6.67;;;11.10;99.90;;;;;;5072294;28;20538;-64
2022/05/22 01:16:20;;;;;;;7.00;6.30;;;11.10;99.90;;;;;;5072016;28;20462;-64
2022/05/22 01:18:49;;;;;;;6.97;6.27;;;11.00;99.90;;;;;;5069122;28;20493;-65
2022/05/22 01:21:19;;;;;;;7.53;6.63;;;10.90;99.90;;;;;;5070991;28;20487;-65
2022/05/22 01:23:48;;;;;;;7.43;6.70;;;10.80;99.90;;;;;;5071654;28;20455;-65
2022/05/22 01:26:15;;;;;;;9.17;7.03;;;10.80;99.90;;;;;;5072346;28;20473;-65
2022/05/22 01:28:42;;;;;;;7.90;7.10;;;10.90;99.90;;;;;;5071804;28;21164;-65
2022/05/22 01:31:10;;;;;;;7.13;6.43;;;10.90;99.90;;;;;;5071355;28;20458;-64
2022/05/22 01:33:38;;;;;;;6.60;6.00;;;11.00;99.90;;;;;;5071921;28;20473;-65
2022/05/22 01:36:05;;;;;;;8.87;7.07;;;11.00;99.90;;;;;;5071719;28;20822;-64
2022/05/22 01:38:33;;;;;;;8.00;6.93;;;10.90;99.90;;;;;;5071687;28;20444;-65
2022/05/22 01:41:02;;;;;;;8.30;6.70;;;10.90;99.90;;;;;;5070997;28;20451;-65
2022/05/22 01:43:29;;;;;;;8.07;6.80;;;10.80;99.90;;;;;;5071981;28;20443;-64
2022/05/22 01:45:56;;;;;;;11.97;7.17;;;10.70;99.90;;;;;;5071961;28;20476;-65
2022/05/22 01:48:23;;;;;;;7.67;6.90;;;10.70;99.90;;;;;;5071876;28;20458;-63
2022/05/22 01:50:50;;;;;;;8.90;6.50;;;10.60;99.90;;;;;;5071272;28;20861;-65
2022/05/22 01:53:19;;;;;;;7.80;6.40;;;10.50;99.90;;;;;;5071744;28;20526;-65
2022/05/22 01:55:45;;;;;;;7.97;6.73;;;10.50;99.90;;;;;;5071877;28;20455;-65
2022/05/22 01:58:14;;;;;;;9.47;6.80;;;10.70;99.90;;;;;;5071766;28;20978;-64
2022/05/22 02:00:41;;;;;;;8.60;7.67;;;10.70;99.90;;;;;;5071233;28;20498;-65
2022/05/22 02:03:08;;;;;;;8.10;6.97;;;10.60;99.90;;;;;;5071012;28;20486;-65
2022/05/22 02:05:36;;;;;;;7.53;6.80;;;10.60;99.90;;;;;;5070826;28;20811;-65
2022/05/22 02:08:22;;;;;;;9.03;8.17;;;10.60;99.90;;;;;;5071286;28;20447;-65
2022/05/22 02:10:52;;;;;;;8.40;7.07;;;10.60;99.90;;;;;;5071091;28;20466;-66
2022/05/22 02:13:23;;;;;;;8.43;7.63;;;10.60;99.90;;;;;;5071147;28;20449;-65
2022/05/22 02:15:51;;;;;;;9.63;7.50;;;10.60;99.90;;;;;;5070630;28;20937;-65
2022/05/22 02:18:18;;;;;;;10.67;7.10;;;10.70;99.90;;;;;;5070998;28;20883;-65
2022/05/22 02:20:45;;;;;;;8.40;6.83;;;10.60;99.90;;;;;;5070698;28;21002;-64
2022/05/22 02:23:12;;;;;;;9.10;8.20;;;10.60;99.90;;;;;;5070647;28;20867;-65
2022/05/22 02:25:43;;;;;;;8.33;7.50;;;10.60;99.90;;;;;;5070562;28;20447;-65
2022/05/22 02:28:14;;;;;;;7.90;7.10;;;10.50;99.90;;;;;;5070430;28;20458;-65
2022/05/22 02:30:46;;;;;;;8.57;7.77;;;10.50;99.90;;;;;;5069997;28;20918;-65
2022/05/22 02:33:13;;;;;;;8.00;7.30;;;10.60;99.90;;;;;;5070497;28;20445;-65
2022/05/22 02:35:40;;;;;;;8.57;6.80;;;10.50;99.90;;;;;;5070429;28;20451;-65
2022/05/22 02:38:07;;;;;;;9.20;8.40;;;10.50;99.90;;;;;;5070238;28;20960;-65
2022/05/22 02:40:35;;;;;;;8.97;8.20;;;10.50;99.90;;;;;;5069827;28;20494;-63
2022/05/22 02:43:02;;;;;;;10.13;7.67;;;10.60;99.90;;;;;;5070079;28;20999;-65
2022/05/22 02:45:32;;;;;;;9.00;6.33;;;10.60;99.90;;;;;;5070050;28;20937;-65
2022/05/22 02:48:00;;;;;;;7.93;7.23;;;10.60;99.90;;;;;;5070258;28;20453;-65
2022/05/22 02:50:29;;;;;;;7.53;6.83;;;10.60;99.90;;;;;;5069831;28;20467;-65
2022/05/22 02:52:56;;;;;;;11.00;7.10;;;10.50;99.90;;;;;;5069206;28;20534;-65
2022/05/22 02:55:23;;;;;;;8.10;7.20;;;10.50;99.90;;;;;;5069827;28;20949;-63
2022/05/22 02:57:50;;;;;;;9.20;7.67;;;10.50;99.90;;;;;;5069965;28;20454;-65
2022/05/22 03:00:21;;;;;;;7.60;6.90;;;10.40;99.90;;;;;;5069770;28;20471;-65
2022/05/22 03:02:48;;;;;;;10.37;6.67;;;10.40;99.90;;;;;;5069780;28;20583;-65
2022/05/22 03:05:16;;;;;;;9.43;6.30;;;10.40;99.90;;;;;;5069874;28;20954;-65
2022/05/22 03:07:43;;;;;;;7.03;5.80;;;10.50;99.90;;;;;;5069862;28;20447;-65
2022/05/22 03:10:13;;;;;;;6.77;6.10;;;10.50;99.90;;;;;;5069359;28;20538;-65
2022/05/22 03:12:40;;;;;;;6.73;6.13;;;10.40;99.90;;;;;;5070025;28;20446;-65
2022/05/22 03:15:09;;;;;;;6.60;6.00;;;10.30;99.90;;;;;;5069832;28;20538;-65
2022/05/22 03:17:36;;;;;;;7.57;6.30;;;10.30;99.90;;;;;;5069830;28;20525;-65
2022/05/22 03:20:04;;;;;;;7.73;6.37;;;10.40;99.90;;;;;;5069321;28;20841;-65
2022/05/22 03:22:32;;;;;;;7.03;6.40;;;10.30;99.90;;;;;;5069543;28;20885;-65
2022/05/22 03:24:59;;;;;;;10.37;7.03;;;10.30;99.90;;;;;;5069728;28;20451;-65
2022/05/22 03:27:26;;;;;;;7.37;6.17;;;10.30;99.90;;;;;;5069644;28;21026;-65
2022/05/22 03:29:53;;;;;;;8.33;6.80;;;10.40;99.90;;;;;;5069376;28;20834;-65
2022/05/22 03:32:20;;;;;;;7.10;6.40;;;10.40;99.90;;;;;;5069735;28;20443;-65
2022/05/22 03:34:46;;;;;;;9.70;6.33;;;10.20;99.90;;;;;;5069591;28;20450;-63
2022/05/22 03:37:14;;;;;;;8.30;6.10;;;10.20;99.90;;;;;;5069591;28;20443;-65
2022/05/22 03:39:42;;;;;;;7.27;6.07;;;10.20;99.90;;;;;;5069466;28;20467;-65
2022/05/22 03:42:10;;;;;;;8.27;6.00;;;10.30;99.90;;;;;;5069350;28;20485;-65
2022/05/22 03:44:37;;;;;;;6.93;6.33;;;10.30;99.90;;;;;;5069421;28;20866;-65
2022/05/22 03:47:05;;;;;;;7.60;6.13;;;10.30;99.90;;;;;;5069815;28;20453;-65
2022/05/22 03:49:32;;;;;;;11.70;6.70;;;10.20;99.90;;;;;;5069422;28;20832;-65
2022/05/22 03:51:58;;;;;;;8.60;6.30;;;10.10;99.90;;;;;;5069403;28;20454;-65
2022/05/22 03:54:25;;;;;;;8.07;6.93;;;10.20;99.90;;;;;;5069093;28;20443;-65
2022/05/22 03:56:54;;;;;;;6.70;6.00;;;10.30;99.90;;;;;;5069984;28;20953;-65
2022/05/22 03:59:21;;;;;;;8.30;6.67;;;10.20;99.90;;;;;;5069267;28;20459;-65
2022/05/22 04:01:47;;;;;;;7.10;6.40;;;10.30;99.90;;;;;;5069013;28;20466;-65
2022/05/22 04:04:14;;;;;;;6.90;6.30;;;10.50;99.90;;;;;;5070751;28;20449;-65
2022/05/22 04:06:41;;;;;;;6.63;5.63;;;10.50;99.90;;;;;;5073159;28;20478;-65
2022/05/22 04:09:09;;;;;;;8.83;6.60;;;10.60;99.90;;;;;;5073166;28;20463;-65
2022/05/22 04:11:36;;;;;;;7.60;6.90;;;10.70;99.90;;;;;;5072817;28;20504;-65
2022/05/22 04:14:04;;;;;;;8.17;7.40;;;10.70;99.90;;;;;;5072953;28;20451;-65
2022/05/22 04:16:31;;;;;;;7.30;6.60;;;10.80;99.90;;;;;;5072976;28;20446;-65
2022/05/22 04:18:57;;;;;;;9.77;6.70;;;10.80;99.90;;;;;;5072897;28;20494;-65
2022/05/22 04:21:24;;;;;;;10.13;5.80;;;10.90;99.90;;;;;;5072759;28;20451;-65
2022/05/22 04:26:35;;;;;;;7.00;6.40;;;11.00;99.90;;;;;;5073043;28;20504;-63
2022/05/22 04:29:04;;;;;;;7.33;6.63;;;11.10;99.90;;;;;;5072815;28;20466;-65
2022/05/22 04:31:31;;;;;;;6.43;5.80;;;11.10;99.90;;;;;;5072364;28;20819;-66
2022/05/22 04:33:57;;;;;;;6.60;5.50;;;11.10;99.90;;;;;;5073201;28;20445;-65
2022/05/22 04:36:24;;;;;;;6.83;6.23;;;11.20;99.90;;;;;;5072928;28;20469;-66
2022/05/22 04:38:51;;;;;;;6.57;5.97;;;11.20;99.90;;;;;;5072766;28;20985;-65
2022/05/22 04:41:18;;;;;;;6.87;6.23;;;11.20;99.90;;;;;;5072656;28;20447;-65
2022/05/22 04:43:45;;;;;;;7.00;6.40;;;11.10;99.90;;;;;;5072593;28;20475;-65
2022/05/22 04:46:14;;;;;;;6.47;5.80;;;11.10;99.90;;;;;;5072931;28;20930;-65
2022/05/22 04:48:40;;;;;;;6.40;5.80;;;11.20;99.90;;;;;;5072789;28;20473;-64
2022/05/22 04:51:07;;;;;;;7.57;5.90;;;11.20;99.90;;;;;;5072347;28;20443;-65
2022/05/22 04:53:34;;;;;;;6.53;5.70;;;11.30;99.90;;;;;;5072598;28;20443;-63
2022/05/22 04:56:01;;;;;;;6.57;5.97;;;11.30;99.90;;;;;;5072426;28;20451;-65
2022/05/22 04:58:28;;;;;;;7.73;5.80;;;11.40;99.90;;;;;;5072343;28;20447;-65
2022/05/22 05:00:55;;;;;;;6.27;5.60;;;11.40;99.90;;;;;;5072048;28;20458;-65
2022/05/22 05:03:23;;;;;;;7.13;6.20;;;11.40;99.90;;;;;;5072184;28;20497;-65
2022/05/22 05:05:57;;;;;;;6.20;5.50;;;11.50;99.90;;;;;;5072272;28;20529;-65
2022/05/22 05:08:25;;;;;;;7.37;5.77;;;11.50;99.90;;;;;;5071991;28;20541;-64
2022/05/22 05:10:52;;;;;;;6.23;5.73;;;11.60;99.90;;;;;;5071666;28;20546;-65
2022/05/22 05:13:19;;;;;;;7.33;5.67;;;11.70;99.90;;;;;;5071857;28;20941;-65
2022/05/22 05:15:47;;;;;;;6.70;6.03;;;11.80;99.90;;;;;;5071254;28;20453;-65
2022/05/22 05:18:14;;;;;;;6.83;6.23;;;11.80;99.90;;;;;;5072066;28;20454;-65
2022/05/22 05:20:47;;;;;;;6.80;5.73;;;12.00;99.90;;;;;;5071609;28;20848;-65
2022/05/22 05:23:14;;;;;;;6.93;5.73;;;12.20;99.90;;;;;;5071626;28;20483;-65
2022/05/22 05:25:41;;;;;;;6.43;5.83;;;12.30;99.90;;;;;;5071758;28;20550;-65
2022/05/22 05:28:08;;;;;;;5.43;5.03;;;12.30;99.90;;;;;;5071556;28;20447;-65
2022/05/22 05:30:34;;;;;;;6.20;5.60;;;12.40;99.90;;;;;;5071195;28;20521;-65
2022/05/22 05:33:01;;;;;;;7.73;5.17;;;12.50;99.90;;;;;;5071535;28;20454;-65
2022/05/22 05:35:28;;;;;;;6.67;5.80;;;12.60;99.90;;;;;;5071670;28;20538;-65
2022/05/22 05:37:56;;;;;;;6.43;5.00;;;12.70;99.90;;;;;;5071476;28;20447;-65
2022/05/22 05:40:23;;;;;;;5.37;4.97;;;12.80;99.90;;;;;;5071118;28;20554;-65
2022/05/22 05:42:50;;;;;;;5.77;5.20;;;12.80;99.90;;;;;;5071398;28;21067;-64
2022/05/22 05:45:18;;;;;;;5.87;4.70;;;13.00;99.90;;;;;;5071486;28;20457;-65
2022/05/22 05:47:47;;;;;;;5.93;5.17;;;13.10;99.90;;;;;;5071353;28;21187;-65
2022/05/22 05:50:15;;;;;;;6.40;4.70;;;13.10;99.90;;;;;;5070748;28;21093;-66
2022/05/22 05:52:42;;;;;;;5.87;5.27;;;13.30;99.90;;;;;;5071112;28;20841;-65
2022/05/22 05:55:10;;;;;;;5.80;5.17;;;13.30;99.90;;;;;;5071247;28;20446;-65
2022/05/22 05:57:37;;;;;;;7.83;5.00;;;13.50;99.90;;;;;;5071205;28;20829;-65
2022/05/22 06:00:07;;;;;;;6.87;4.50;;;13.70;99.90;;;;;;5070604;28;20466;-65
2022/05/22 06:02:34;;;;;;;5.60;5.10;;;13.80;99.90;;;;;;5070821;28;20479;-65
2022/05/22 06:05:00;;;;;;;6.40;4.87;;;14.00;99.90;;;;;;5070782;28;20447;-65
2022/05/22 06:07:27;;;;;;;5.30;4.23;;;14.10;99.90;;;;;;5070732;28;20443;-65
2022/05/22 06:09:54;;;;;;;5.60;4.60;;;14.20;99.90;;;;;;5070424;28;21075;-65
2022/05/22 06:12:23;;;;;;;5.00;4.50;;;14.30;99.90;;;;;;5070887;28;20461;-65
2022/05/22 06:14:50;;;;;;;5.20;3.90;;;14.40;99.90;;;;;;5070908;28;20451;-66
2022/05/22 06:17:16;;;;;;;5.07;4.13;;;14.40;99.90;;;;;;5070769;28;21024;-66
2022/05/22 06:19:57;;;;;;;5.03;4.27;;;14.60;99.90;;;;;;5070269;28;20528;-64
2022/05/22 06:22:26;;;;;;;4.80;4.30;;;14.70;99.90;;;;;;5070769;28;20864;-65
2022/05/22 06:24:54;;;;;;;4.27;3.90;;;14.70;99.90;;;;;;5070552;28;20453;-66
2022/05/22 06:27:22;;;;;;;4.43;3.90;;;14.90;99.90;;;;;;5070441;28;20505;-65
2022/05/22 06:29:50;;;;;;;4.60;3.53;;;15.10;99.90;;;;;;5070226;28;20463;-65
2022/05/22 06:32:19;;;;;;;5.87;4.10;;;15.10;99.90;;;;;;5070208;28;20482;-65
2022/05/22 06:34:48;;;;;;;4.73;3.90;;;15.20;99.90;;;;;;5070489;28;20447;-65
2022/05/22 06:37:18;;;;;;;4.90;3.70;;;15.40;99.90;;;;;;5070390;28;20459;-64
2022/05/22 06:39:50;;;;;;;4.00;3.60;;;15.50;99.90;;;;;;5070040;28;20471;-65
2022/05/22 06:42:20;;;;;;;4.80;4.23;;;15.70;99.90;;;;;;5070091;28;20449;-65
2022/05/22 06:44:53;;;;;;;3.90;3.30;;;15.80;99.90;;;;;;5070137;28;21228;-65
2022/05/22 06:47:20;;;;;;;5.63;3.57;;;15.90;99.90;;;;;;5070461;28;20453;-65
2022/05/22 06:49:47;;;;;;;7.60;4.17;;;16.10;99.90;;;;;;5069752;28;20467;-64
2022/05/22 06:52:15;;;;;;;3.70;3.30;;;16.30;99.90;;;;;;5069979;28;20443;-65
2022/05/22 06:54:42;;;;;;;4.57;3.40;;;16.50;99.90;;;;;;5070012;28;20952;-65
2022/05/22 06:57:09;;;;;;;5.33;3.40;;;16.70;99.90;;;;;;5069979;28;20449;-64
2022/05/22 06:59:35;;;;;;;4.07;2.93;;;16.80;99.90;;;;;;5070178;28;20466;-65
2022/05/22 07:02:04;;;;;;;4.23;2.93;;;16.80;99.90;;;;;;5069734;28;20457;-66
2022/05/22 07:04:31;;;;;;;4.87;3.90;;;17.00;99.90;;;;;;5070032;28;20956;-66
2022/05/22 07:06:59;;;;;;;4.70;3.40;;;17.20;99.90;;;;;;5070067;28;20451;-65
2022/05/22 07:09:26;;;;;;;4.30;3.90;;;17.30;99.90;;;;;;5069846;28;20973;-66
2022/05/22 07:11:54;;;;;;;3.50;3.20;;;17.40;99.90;;;;;;5070704;28;20854;-66
2022/05/22 07:14:22;;;;;;;3.60;3.07;;;17.50;99.90;;;;;;5070096;28;20496;-66
2022/05/22 07:16:49;;;;;;;7.20;3.63;;;17.50;99.90;;;;;;5070195;28;20450;-66
2022/05/22 07:19:18;;;;;;;5.47;3.40;;;17.70;99.90;;;;;;5069944;28;20471;-65
2022/05/22 07:21:45;;;;;;;5.67;3.20;;;17.80;99.90;;;;;;5069693;28;20445;-66
2022/05/22 07:24:13;;;;;;;4.50;2.90;;;18.00;99.90;;;;;;5069573;28;20475;-66
2022/05/22 07:26:39;;;;;;;4.20;2.83;;;18.20;99.90;;;;;;5069983;28;20447;-65
2022/05/22 07:29:06;;;;;;;5.93;3.30;;;18.40;99.90;;;;;;5069815;28;20507;-66
2022/05/22 07:31:34;;;;;;;4.53;2.63;;;18.50;99.90;;;;;;5069626;28;20439;-66
2022/05/22 07:34:01;;;;;;;4.50;2.90;;;18.50;99.90;;;;;;5069781;28;20443;-64
2022/05/22 07:36:29;;;;;;;4.80;2.90;;;18.70;99.90;;;;;;5069722;28;20454;-66
2022/05/22 07:38:58;;;;;;;4.13;2.90;;;18.80;99.90;;;;;;5070366;28;20462;-66
2022/05/22 07:41:25;;;;;;;5.20;2.97;;;19.00;99.90;;;;;;5073556;28;20454;-66
2022/05/22 07:43:52;;;;;;;3.33;2.57;;;19.10;99.90;;;;;;5073602;28;20858;-66
2022/05/22 07:46:21;;;;;;;4.70;2.40;;;19.10;99.90;;;;;;5073713;28;20449;-65
2022/05/22 07:48:47;;;;;;;4.00;2.30;;;19.10;99.90;;;;;;5073424;28;20466;-66
2022/05/22 07:51:14;;;;;;;5.40;3.23;;;19.30;99.90;;;;;;5073067;28;20465;-66
2022/05/22 07:53:43;;;;;;;3.90;2.73;;;19.50;99.90;;;;;;5073278;28;20528;-67
2022/05/22 07:56:11;;;;;;;3.80;2.87;;;19.60;99.90;;;;;;5073487;28;20450;-66
2022/05/22 07:58:38;;;;;;;3.20;2.80;;;19.80;99.90;;;;;;5073390;28;20501;-66
2022/05/22 08:01:05;;;;;;;3.78;3.05;;;19.80;99.90;;;;;;5072756;28;20889;-65
2022/05/22 08:03:33;;;;;;;3.90;2.60;;;19.80;99.90;;;;;;5073072;28;20220;-65
2022/05/22 08:06:01;;;;;;;4.43;2.50;;;19.80;99.90;;;;;;5073025;28;20446;-64
2022/05/22 08:08:28;;;;;;;3.23;2.93;;;19.90;99.90;;;;;;5073144;28;20459;-66
2022/05/22 08:10:58;;;;;;;3.40;2.40;;;20.00;99.90;;;;;;5073092;28;21087;-66
2022/05/22 08:13:25;;;;;;;4.23;2.33;;;20.00;99.90;;;;;;5073038;28;20443;-66
2022/05/22 08:15:52;;;;;;;3.70;2.50;;;20.10;99.90;;;;;;5072928;28;20821;-65
2022/05/22 08:18:20;;;;;;;3.70;2.20;;;20.00;99.90;;;;;;5072778;28;20459;-66
2022/05/22 08:20:49;;;;;;;5.07;2.23;;;20.10;99.90;;;;;;5072812;28;20871;-66
2022/05/22 08:23:18;;;;;;;6.23;2.70;;;20.20;99.90;;;;;;5072715;28;20478;-66
2022/05/22 08:25:46;;;;;;;3.70;2.70;;;20.40;99.90;;;;;;5072741;28;20447;-66
2022/05/22 08:28:15;;;;;;;3.60;2.30;;;20.60;99.90;;;;;;5072706;28;20945;-66
2022/05/22 08:30:42;;;;;;;3.10;2.50;;;20.70;99.90;;;;;;5072350;28;20477;-66
2022/05/22 08:33:12;;;;;;;6.00;2.57;;;20.90;99.90;;;;;;5072458;28;20446;-66
2022/05/22 08:35:42;;;;;;;3.97;2.50;;;21.00;99.90;;;;;;5072731;28;20461;-66
2022/05/22 08:38:09;;;;;;;4.77;2.50;;;21.10;99.90;;;;;;5072607;28;20443;-66
2022/05/22 08:40:47;;;;;;;4.40;2.50;;;21.30;99.90;;;;;;5072049;28;21278;-66
2022/05/22 08:43:17;;;;;;;3.47;2.00;;;21.40;99.90;;;;;;5072528;28;20447;-66
2022/05/22 08:45:46;;;;;;;3.83;2.00;;;21.50;99.90;;;;;;5072394;28;20458;-65
2022/05/22 08:48:20;;;;;;;3.50;2.23;;;21.50;99.90;;;;;;5072570;28;20453;-66
2022/05/22 08:50:49;;;;;;;4.63;1.90;;;21.60;99.90;;;;;;5070755;28;20496;-66
2022/05/22 08:53:23;;;;;;;3.20;2.30;;;21.60;99.40;;;;;;5072449;28;20447;-66
2022/05/22 08:58:59;;;;;;;5.63;2.47;;;21.50;99.90;;;;;;5072404;28;20512;-65
2022/05/22 09:01:42;;;;;;;4.10;2.33;;;21.50;99.60;;;;;;5071801;28;20451;-64
2022/05/22 09:04:16;;;;;;;3.23;2.70;;;21.30;99.90;;;;;;5072094;28;20494;-64
2022/05/22 09:06:47;;;;;;;4.07;2.20;;;21.20;99.10;;;;;;5072252;28;20449;-64
2022/05/22 09:09:14;;;;;;;3.83;2.07;;;21.20;99.20;;;;;;5072115;28;20474;-65
2022/05/22 09:12:01;;;;;;;5.13;2.33;;;21.50;99.90;;;;;;5071882;28;20451;-65
2022/05/22 09:14:38;;;;;;;3.50;2.30;;;21.70;99.90;;;;;;5072023;28;20957;-65
2022/05/22 09:17:14;;;;;;;3.00;2.23;;;21.60;98.00;;;;;;5072122;28;20443;-66
2022/05/22 09:19:44;;;;;;;4.10;1.90;;;21.70;97.20;;;;;;5070730;28;20482;-65
2022/05/22 09:22:22;;;;;;;2.73;1.70;;;21.80;98.50;;;;;;5070860;28;21148;-65
2022/05/22 09:24:59;;;;;;;4.93;1.80;;;21.90;96.70;;;;;;5067273;28;21068;-66
2022/05/22 09:27:35;;;;;;;3.60;2.17;;;21.90;96.40;;;;;;5051812;28;20928;-66
2022/05/22 09:30:08;;;;;;;4.30;2.23;;;22.00;96.70;;;;;;5051392;28;21012;-65
2022/05/22 09:32:53;;;;;;;3.53;2.10;;;22.30;98.40;;;;;;5068410;28;20443;-64
2022/05/22 09:35:31;;;;;;;4.40;2.03;;;22.70;97.00;;;;;;5068450;28;20439;-64
2022/05/22 09:38:11;;;;;;;3.80;2.10;;;22.80;96.50;;;;;;5071455;28;20542;-65
2022/05/22 09:40:45;;;;;;;3.90;2.03;;;22.90;96.00;;;;;;5071645;28;20459;-66
2022/05/22 09:43:54;;;;;;;5.63;2.40;;;22.50;95.70;;;;;;5071746;28;20447;-67
2022/05/22 09:46:59;;;;;;;3.47;2.23;;;22.40;97.00;;;;;;5071623;28;20964;-65
2022/05/22 09:49:40;;;;;;;4.57;2.80;;;22.70;95.20;;;;;;5071352;28;20474;-66
2022/05/22 09:52:14;;;;;;;4.83;2.70;;;23.30;95.60;;;;;;5071313;28;20461;-66
2022/05/22 09:54:55;;;;;;;3.40;2.77;;;24.40;95.40;;;;;;5074151;28;20450;-66
2022/05/22 09:57:33;;;;;;;4.83;3.07;;;25.60;93.60;;;;;;5072862;28;20454;-66
2022/05/22 10:00:07;;;;;;;2.40;1.70;;;26.80;90.40;;;;;;5071556;28;20838;-67
2022/05/22 10:02:45;;;;;;;2.87;1.70;;;27.30;89.80;;;;;;5070886;28;20458;-65
2022/05/22 10:05:25;;;;;;;4.33;2.00;;;27.70;81.00;;;;;;5071750;28;20488;-66
2022/05/22 10:08:01;;;;;;;2.70;1.47;;;27.20;81.00;;;;;;5071965;28;20450;-66
2022/05/22 10:10:34;;;;;;;3.30;1.60;;;27.40;80.70;;;;;;5068263;28;20481;-66
2022/05/22 10:13:09;;;;;;;2.93;1.83;;;28.10;81.20;;;;;;5071604;28;20447;-64
2022/05/22 10:15:47;;;;;;;5.60;2.37;;;28.40;74.60;;;;;;5067231;28;20584;-65
2022/05/22 10:18:28;;;;;;;4.67;2.37;;;27.40;77.50;;;;;;5068582;28;20449;-67
2022/05/22 10:21:05;;;;;;;3.37;2.10;;;26.80;77.10;;;;;;5061371;28;20439;-68
2022/05/22 10:23:45;;;;;;;2.93;1.90;;;27.20;78.70;;;;;;5066530;28;20438;-67
2022/05/22 10:26:27;;;;;;;4.43;1.70;;;27.40;76.10;;;;;;5070677;28;20453;-68
2022/05/22 10:28:59;;;;;;;3.20;2.27;;;27.10;77.50;;;;;;5069116;28;20641;-67
2022/05/22 10:31:37;;;;;;;2.50;1.80;;;27.30;76.60;;;;;;5067473;28;20450;-67
2022/05/22 10:34:12;;;;;;;3.27;1.80;;;27.40;75.30;;;;;;5068338;28;20450;-67
2022/05/22 10:36:44;;;;;;;2.73;1.77;;;27.60;78.00;;;;;;5067002;28;20466;-64
2022/05/22 10:39:13;;;;;;;4.13;1.90;;;28.20;73.00;;;;;;5069846;28;20458;-68
2022/05/22 10:44:33;;;;;;;3.10;1.70;;;27.90;74.00;;;;;;5066894;28;20947;-68
2022/05/22 10:47:02;;;;;;;2.70;1.67;;;28.00;71.00;;;;;;5067759;28;20542;-67
2022/05/22 10:49:39;;;;;;;3.53;1.83;;;28.70;71.40;;;;;;5069257;28;20477;-67
2022/05/22 10:52:08;;;;;;;3.20;2.20;;;28.90;73.40;;;;;;5068237;28;20453;-68
2022/05/22 10:54:36;;;;;;;4.13;2.17;;;29.00;72.70;;;;;;5070174;28;20443;-67
2022/05/22 10:57:13;;;;;;;2.43;1.77;;;29.50;75.90;;;;;;5069920;28;20459;-67
2022/05/22 10:59:40;;;;;;;3.30;1.90;;;30.30;72.50;;;;;;5069993;28;20502;-66
2022/05/22 11:02:17;;;;;;;2.80;1.67;;;30.80;67.20;;;;;;5069962;28;20511;-66
2022/05/22 11:04:46;;;;;;;5.30;1.97;;;30.10;70.20;;;;;;5070246;28;20478;-67
2022/05/22 11:07:15;;;;;;;5.13;1.63;;;30.20;71.70;;;;;;5070159;28;20542;-66
2022/05/22 11:09:47;;;;;;;2.53;1.50;;;31.00;67.00;;;;;;5069900;28;20467;-67
2022/05/22 11:12:19;;;;;;;3.20;1.63;;;31.20;66.90;;;;;;5070070;28;20961;-66
2022/05/22 11:14:46;;;;;;;2.70;1.43;;;31.50;66.60;;;;;;5069264;28;20458;-67
2022/05/22 11:17:16;;;;;;;3.80;1.67;;;31.90;64.00;;;;;;5069910;28;20453;-65
2022/05/22 11:19:46;;;;;;;2.47;1.70;;;31.60;60.60;;;;;;5069260;28;20462;-67
2022/05/22 11:22:31;;;;;;;2.77;1.60;;;30.90;62.90;;;;;;5071763;28;20439;-67
2022/05/22 11:25:10;;;;;;;3.17;1.67;;;30.50;61.30;;;;;;5069601;28;20506;-67
2022/05/22 11:27:53;;;;;;;3.47;1.90;;;30.40;63.20;;;;;;5069900;28;20451;-67
2022/05/22 11:30:32;;;;;;;5.43;1.97;;;30.60;61.00;;;;;;5069340;28;20477;-66
2022/05/22 11:33:20;;;;;;;3.33;1.80;;;30.20;62.60;;;;;;5070004;28;20496;-67
2022/05/22 11:35:58;;;;;;;2.63;1.53;;;30.40;62.40;;;;;;5069802;28;20447;-67
2022/05/22 11:38:54;;;;;;;3.23;1.67;;;30.60;61.10;;;;;;5069284;28;20453;-66
2022/05/22 11:41:25;;;;;;;5.70;1.80;;;31.00;63.40;;;;;;5069267;28;20446;-67
2022/05/22 11:44:34;;;;;;;2.73;1.40;;;31.70;64.60;;;;;;5069563;28;20819;-66
2022/05/22 11:47:13;;;;;;;3.67;2.23;;;31.90;59.80;;;;;;5069298;28;20563;-67
2022/05/22 11:49:48;;;;;;;2.43;1.43;;;31.80;58.50;;;;;;5068751;28;20560;-66
2022/05/22 11:55:22;;;;;;;4.63;2.60;;;31.80;57.80;;;;;;5068602;28;20890;-73
2022/05/22 11:58:01;;;;;;;4.40;1.93;;;30.90;58.00;;;;;;5048330;28;20452;-68
2022/05/22 12:00:36;;;;;;;2.30;1.80;;;30.10;58.60;;;;;;5050770;28;21043;-68
2022/05/22 12:03:21;;;;;;;4.50;1.90;;;29.20;60.70;;;;;;5068861;28;20801;-70
2022/05/22 12:06:04;;;;;;;3.73;2.10;;;28.90;61.70;;;;;;5065183;28;21014;-68
2022/05/22 12:08:50;;;;;;;3.10;1.97;;;28.90;63.90;;;;;;5069076;28;20475;-66
2022/05/22 12:11:25;;;;;;;6.10;1.90;;;28.60;63.10;;;;;;5068702;28;20528;-64
2022/05/22 12:14:00;;;;;;;3.20;2.20;;;28.40;61.60;;;;;;5069042;28;20503;-66
2022/05/22 12:16:32;;;;;;;3.63;1.90;;;28.40;63.70;;;;;;5066276;28;20465;-67
2022/05/22 12:19:06;;;;;;;3.53;1.60;;;28.80;63.50;;;;;;5069128;28;20466;-66
2022/05/22 12:21:45;;;;;;;3.70;1.80;;;29.10;60.50;;;;;;5066146;28;20475;-67
2022/05/22 12:24:16;;;;;;;2.40;1.77;;;29.60;61.90;;;;;;5067520;28;20439;-67
2022/05/22 12:26:44;;;;;;;3.03;2.10;;;29.90;59.50;;;;;;5072826;28;20443;-67
2022/05/22 12:29:14;;;;;;;3.33;1.80;;;30.30;66.50;;;;;;5073335;28;20490;-65
2022/05/22 12:31:47;;;;;;;3.80;2.10;;;30.90;59.70;;;;;;5072810;28;20558;-68
2022/05/22 12:34:18;;;;;;;2.77;1.67;;;31.20;58.80;;;;;;5073059;28;20458;-66
2022/05/22 12:36:49;;;;;;;4.23;1.57;;;30.40;56.30;;;;;;5072792;28;21015;-66
2022/05/22 12:39:19;;;;;;;2.83;1.90;;;30.10;59.20;;;;;;5072820;28;20470;-67
2022/05/22 12:41:58;;;;;;;3.90;3.27;;;29.70;57.40;;;;;;5072410;28;20542;-67
2022/05/22 12:44:25;;;;;;;6.40;5.50;;;29.90;58.20;;;;;;5072893;28;20817;-66
2022/05/22 12:46:53;;;;;;;6.03;5.40;;;30.40;58.60;;;;;;5072646;28;20487;-66
2022/05/22 12:49:24;;;;;;;5.03;2.60;;;31.30;60.20;;;;;;5072709;28;20916;-67
2022/05/22 12:52:06;;;;;;;3.40;1.87;;;32.10;57.60;;;;;;5072095;28;20446;-65
2022/05/22 12:54:36;;;;;;;3.37;2.10;;;32.60;52.30;;;;;;5072452;28;20443;-67
2022/05/22 12:57:17;;;;;;;3.13;1.60;;;33.20;55.30;;;;;;5069123;28;20948;-67
2022/05/22 12:59:56;;;;;;;2.90;1.63;;;33.80;53.10;;;;;;5070847;28;20470;-68
2022/05/22 13:02:42;;;;;;;2.80;1.70;;;33.90;56.10;;;;;;5068974;28;20446;-66
2022/05/22 13:05:27;;;;;;;5.57;3.27;;;33.30;52.50;;;;;;5066290;28;20487;-67
2022/05/22 13:07:54;;;;;;;4.53;1.87;;;33.50;54.50;;;;;;5064796;28;20450;-66
2022/05/22 13:10:30;;;;;;;2.70;1.50;;;32.80;51.80;;;;;;5065019;28;20839;-66
2022/05/22 13:13:01;;;;;;;4.20;2.07;;;31.00;52.50;;;;;;5064108;28;20469;-67
2022/05/22 13:15:30;;;;;;;3.50;1.83;;;30.90;59.10;;;;;;5070780;28;20444;-67